createdAt,value
2017-10-25T00:02:04.284Z,16.50
2017-10-25T00:04:38.676Z,12.55
2017-10-25T00:07:13.856Z,14.27
2017-10-25T00:09:48.302Z,11.57
2017-10-25T00:12:23.549Z,14.07
2017-10-25T00:14:57.858Z,14.65
2017-10-25T00:17:32.571Z,15.68
2017-10-25T00:20:06.940Z,13.32
2017-10-25T00:22:41.359Z,14.95
2017-10-25T00:25:15.689Z,9.20
2017-10-25T00:27:50.061Z,16.30
2017-10-25T00:30:24.519Z,12.75
2017-10-25T00:32:59.018Z,15.18
2017-10-25T00:35:33.520Z,15.20
2017-10-25T00:38:08.064Z,11.23
2017-10-25T00:40:42.359Z,10.90
2017-10-25T00:43:17.230Z,9.38
2017-10-25T00:45:52.336Z,11.25
2017-10-25T00:48:26.899Z,12.48
2017-10-25T00:51:01.289Z,10.57
2017-10-25T00:53:35.795Z,13.82
2017-10-25T00:56:10.251Z,10.95
2017-10-25T00:58:44.652Z,8.88
2017-10-25T01:01:19.130Z,7.93
2017-10-25T01:03:53.522Z,11.00
2017-10-25T01:06:28.813Z,10.23
2017-10-25T01:09:03.931Z,9.82
2017-10-25T01:11:38.369Z,9.80
2017-10-25T01:14:14.145Z,8.07
2017-10-25T01:16:48.644Z,11.07
2017-10-25T01:19:23.059Z,10.30
2017-10-25T01:21:57.496Z,10.07
2017-10-25T01:24:31.776Z,6.10
2017-10-25T01:27:07.099Z,7.80
2017-10-25T01:29:43.321Z,9.68
2017-10-25T01:32:17.749Z,8.98
2017-10-25T01:34:52.117Z,9.52
2017-10-25T01:37:27.921Z,9.48
2017-10-25T01:40:02.202Z,7.40
2017-10-25T01:42:36.558Z,8.52
2017-10-25T01:45:11.861Z,8.52
2017-10-25T01:47:46.185Z,9.80
2017-10-25T01:50:21.295Z,6.80
2017-10-25T01:52:55.757Z,8.77
2017-10-25T01:55:30.321Z,6.87
2017-10-25T01:58:04.706Z,10.63
2017-10-25T02:00:39.298Z,10.68
2017-10-25T02:03:13.691Z,7.97
2017-10-25T02:05:48.143Z,9.57
2017-10-25T02:08:22.445Z,8.13
2017-10-25T02:10:56.916Z,8.43
2017-10-25T02:13:31.340Z,9.07
2017-10-25T02:16:05.824Z,9.27
2017-10-25T02:18:41.055Z,10.95
2017-10-25T02:21:15.364Z,8.70
2017-10-25T02:23:49.928Z,8.18
2017-10-25T02:26:25.895Z,11.20
2017-10-25T02:29:00.388Z,10.15
2017-10-25T02:31:35.625Z,10.40
2017-10-25T02:34:10.033Z,10.45
2017-10-25T02:36:44.457Z,11.50
2017-10-25T02:39:18.882Z,12.20
2017-10-25T02:41:53.513Z,12.85
2017-10-25T02:44:28.025Z,11.12
2017-10-25T02:47:03.909Z,12.40
2017-10-25T02:49:38.355Z,11.77
2017-10-25T02:52:12.658Z,12.63
2017-10-25T02:54:47.843Z,12.15
2017-10-25T02:57:22.284Z,11.80
2017-10-25T02:59:57.390Z,11.25
2017-10-25T03:02:31.852Z,12.95
2017-10-25T03:05:06.960Z,12.52
2017-10-25T03:07:41.344Z,13.05
2017-10-25T03:10:15.814Z,13.15
2017-10-25T03:12:50.269Z,12.05
2017-10-25T03:15:24.623Z,12.60
2017-10-25T03:17:59.868Z,10.82
2017-10-25T03:20:35.044Z,12.40
2017-10-25T03:23:09.735Z,12.77
2017-10-25T03:25:45.264Z,12.55
2017-10-25T03:28:19.779Z,13.60
2017-10-25T03:30:54.205Z,13.52
2017-10-25T03:33:30.089Z,13.27
2017-10-25T03:36:05.257Z,12.82
2017-10-25T03:38:39.591Z,11.23
2017-10-25T03:41:14.849Z,11.50
2017-10-25T03:43:49.932Z,11.52
2017-10-25T03:46:24.412Z,11.20
2017-10-25T03:48:58.892Z,12.10
2017-10-25T03:51:33.412Z,11.50
2017-10-25T03:54:08.502Z,12.15
2017-10-25T03:56:42.891Z,12.55
2017-10-25T03:59:18.733Z,11.80
2017-10-25T04:01:53.304Z,12.13
2017-10-25T04:04:27.725Z,10.48
2017-10-25T04:07:02.018Z,9.88
2017-10-25T04:09:36.552Z,10.00
2017-10-25T04:12:11.909Z,10.90
2017-10-25T04:14:46.416Z,9.60
2017-10-25T04:17:20.925Z,10.32
2017-10-25T04:19:55.304Z,10.18
2017-10-25T04:22:29.620Z,9.25
2017-10-25T04:25:04.896Z,14.15
2017-10-25T04:27:39.306Z,11.88
2017-10-25T04:30:13.800Z,12.15
2017-10-25T04:32:48.878Z,13.55
2017-10-25T04:35:25.533Z,16.90
2017-10-25T04:38:00.036Z,14.75
2017-10-25T04:40:34.508Z,15.60
2017-10-25T04:43:09.044Z,16.33
2017-10-25T04:45:44.798Z,15.82
2017-10-25T04:48:19.871Z,15.15
2017-10-25T04:50:54.301Z,15.80
2017-10-25T04:53:29.604Z,13.50
2017-10-25T04:56:03.945Z,16.33
2017-10-25T04:58:38.486Z,14.55
2017-10-25T05:01:12.900Z,12.65
2017-10-25T05:03:48.000Z,14.90
2017-10-25T05:06:22.484Z,10.25
2017-10-25T05:08:56.934Z,12.40
2017-10-25T05:11:33.167Z,10.73
2017-10-25T05:14:07.610Z,8.73
2017-10-25T05:16:42.000Z,11.02
2017-10-25T05:19:16.339Z,10.52
2017-10-25T05:21:50.968Z,9.70
2017-10-25T05:24:25.468Z,8.85
2017-10-25T05:26:59.835Z,11.48
2017-10-25T05:29:34.185Z,10.02
2017-10-25T05:32:08.670Z,9.95
2017-10-25T05:34:43.009Z,4.80
2017-10-25T05:37:17.445Z,10.48
2017-10-25T05:39:52.688Z,11.43
2017-10-25T05:42:27.089Z,9.98
2017-10-25T05:45:01.495Z,11.48
2017-10-25T05:47:35.781Z,9.70
2017-10-25T05:50:12.231Z,10.43
2017-10-25T05:52:46.646Z,11.55
2017-10-25T05:55:21.035Z,13.00
2017-10-25T05:57:55.515Z,11.88
2017-10-25T06:00:30.039Z,13.05
2017-10-25T06:03:04.502Z,12.95
2017-10-25T06:05:39.697Z,13.10
2017-10-25T06:08:14.990Z,11.32
2017-10-25T06:10:49.499Z,12.55
2017-10-25T06:13:24.329Z,8.95
2017-10-25T06:15:58.696Z,11.80
2017-10-25T06:18:33.889Z,10.63
2017-10-25T06:21:08.246Z,13.50
2017-10-25T06:23:42.532Z,11.00
2017-10-25T06:26:17.259Z,11.18
2017-10-25T06:28:51.656Z,9.00
2017-10-25T06:31:26.325Z,7.35
2017-10-25T06:34:00.678Z,7.25
2017-10-25T06:36:35.806Z,6.60
2017-10-25T06:39:10.264Z,5.82
2017-10-25T06:41:44.676Z,5.93
2017-10-25T06:44:19.955Z,5.35
2017-10-25T06:46:54.493Z,6.72
2017-10-25T06:49:28.911Z,7.28
2017-10-25T06:52:03.288Z,9.85
2017-10-25T06:54:37.721Z,7.15
2017-10-25T06:57:13.395Z,8.70
2017-10-25T06:59:48.513Z,8.35
2017-10-25T07:02:22.896Z,9.52
2017-10-25T07:04:57.307Z,8.93
2017-10-25T07:07:32.468Z,6.68
2017-10-25T07:10:06.820Z,8.63
2017-10-25T07:12:41.351Z,5.45
2017-10-25T07:15:15.800Z,7.75
2017-10-25T07:17:50.170Z,5.72
2017-10-25T07:20:24.594Z,6.28
2017-10-25T07:22:58.951Z,7.50
2017-10-25T07:25:33.316Z,5.10
2017-10-25T07:28:07.817Z,3.25
2017-10-25T07:30:43.071Z,7.53
2017-10-25T07:33:17.610Z,6.10
2017-10-25T07:35:53.637Z,6.90
2017-10-25T07:38:28.024Z,7.05
2017-10-25T07:41:02.628Z,5.87
2017-10-25T07:43:37.072Z,5.68
2017-10-25T07:46:11.423Z,7.28
2017-10-25T07:48:45.736Z,6.07
2017-10-25T07:51:20.262Z,4.30
2017-10-25T07:53:54.772Z,6.85
2017-10-25T07:56:29.271Z,6.22
2017-10-25T07:59:04.363Z,5.65
2017-10-25T08:01:38.879Z,7.15
2017-10-25T08:04:13.199Z,6.87
2017-10-25T08:06:47.715Z,5.45
2017-10-25T08:09:22.102Z,4.75
2017-10-25T08:11:56.640Z,5.55
2017-10-25T08:14:31.080Z,5.80
2017-10-25T08:17:05.572Z,6.32
2017-10-25T08:19:40.839Z,6.43
2017-10-25T08:22:16.083Z,4.12
2017-10-25T08:24:50.516Z,3.78
2017-10-25T08:27:24.811Z,5.12
2017-10-25T08:29:59.344Z,4.22
2017-10-25T08:32:33.691Z,6.20
2017-10-25T08:35:08.043Z,5.45
2017-10-25T08:37:42.831Z,5.30
2017-10-25T08:40:17.199Z,2.47
2017-10-25T08:42:51.612Z,5.90
2017-10-25T08:45:25.982Z,4.25
2017-10-25T08:48:01.068Z,5.22
2017-10-25T08:50:35.413Z,7.10
2017-10-25T08:53:09.863Z,6.68
2017-10-25T08:55:45.073Z,4.68
2017-10-25T08:58:19.400Z,3.22
2017-10-25T09:00:53.763Z,5.47
2017-10-25T09:03:28.203Z,3.70
2017-10-25T09:06:02.695Z,4.07
2017-10-25T09:08:37.775Z,4.93
2017-10-25T09:11:12.910Z,1.90
2017-10-25T09:13:48.041Z,4.80
2017-10-25T09:16:22.583Z,4.35
2017-10-25T09:18:57.089Z,5.65
2017-10-25T09:21:31.614Z,5.15
2017-10-25T09:24:06.020Z,3.75
2017-10-25T09:26:40.579Z,3.62
2017-10-25T09:29:15.047Z,5.75
2017-10-25T09:31:49.419Z,4.72
2017-10-25T09:34:23.955Z,5.43
2017-10-25T09:36:58.432Z,5.50
2017-10-25T09:39:32.796Z,2.78
2017-10-25T09:42:07.203Z,5.32
2017-10-25T09:44:41.507Z,5.62
2017-10-25T09:47:15.904Z,3.47
2017-10-25T09:49:50.347Z,2.25
2017-10-25T09:52:24.803Z,3.80
2017-10-25T09:54:59.144Z,4.40
2017-10-25T09:57:33.585Z,2.58
2017-10-25T10:00:09.161Z,3.47
2017-10-25T10:02:43.582Z,4.32
2017-10-25T10:05:18.027Z,2.87
2017-10-25T10:07:52.384Z,3.03
2017-10-25T10:10:27.633Z,4.03
2017-10-25T10:13:02.748Z,1.75
2017-10-25T10:15:37.231Z,1.92
2017-10-25T10:18:11.621Z,2.65
2017-10-25T10:20:46.134Z,3.12
2017-10-25T10:23:21.396Z,3.33
2017-10-25T10:25:55.871Z,1.70
2017-10-25T10:28:30.209Z,3.80
2017-10-25T10:31:04.663Z,3.78
2017-10-25T10:33:39.904Z,3.87
2017-10-25T10:36:14.958Z,3.00
2017-10-25T10:38:49.279Z,3.40
2017-10-25T10:41:23.810Z,3.83
2017-10-25T10:43:58.233Z,2.50
2017-10-25T10:46:32.793Z,3.45
2017-10-25T10:49:07.141Z,2.37
2017-10-25T10:51:41.568Z,2.15
2017-10-25T10:54:15.991Z,3.70
2017-10-25T10:56:50.297Z,2.70
2017-10-25T10:59:24.697Z,3.58
2017-10-25T11:01:59.080Z,3.25
2017-10-25T11:04:33.510Z,1.98
2017-10-25T11:07:07.867Z,2.15
2017-10-25T11:09:42.199Z,1.73
2017-10-25T11:12:16.686Z,1.30
2017-10-25T11:14:51.120Z,1.75
2017-10-25T11:17:25.702Z,1.52
2017-10-25T11:20:00.246Z,2.42
2017-10-25T11:22:34.735Z,2.10
2017-10-25T11:25:09.306Z,2.30
2017-10-25T11:27:43.815Z,2.47
2017-10-25T11:30:18.401Z,1.65
2017-10-25T11:32:53.623Z,2.00
2017-10-25T11:35:28.087Z,2.10
2017-10-25T11:38:02.612Z,3.03
2017-10-25T11:40:37.043Z,1.90
2017-10-25T11:43:11.594Z,2.05
2017-10-25T11:45:46.080Z,3.72
2017-10-25T11:48:20.573Z,2.15
2017-10-25T11:50:55.142Z,1.85
2017-10-25T11:53:29.571Z,3.70
2017-10-25T11:56:04.784Z,2.20
2017-10-25T11:58:39.268Z,2.65
2017-10-25T12:01:13.724Z,3.37
2017-10-25T12:03:48.133Z,3.28
2017-10-25T12:06:22.511Z,2.72
2017-10-25T12:08:56.962Z,3.30
2017-10-25T12:11:31.289Z,2.50
2017-10-25T12:14:05.775Z,2.58
2017-10-25T12:16:40.361Z,2.65
2017-10-25T12:19:14.848Z,2.00
2017-10-25T12:21:49.192Z,1.73
2017-10-25T12:24:23.624Z,3.15
2017-10-25T12:26:58.177Z,2.03
2017-10-25T12:29:32.639Z,2.33
2017-10-25T12:32:07.089Z,2.17
2017-10-25T12:34:41.407Z,1.90
2017-10-25T12:37:15.735Z,1.20
2017-10-25T12:39:50.297Z,2.25
2017-10-25T12:42:24.754Z,1.70
2017-10-25T12:44:59.187Z,2.37
2017-10-25T12:47:33.525Z,2.00
2017-10-25T12:50:07.956Z,2.53
2017-10-25T12:52:42.476Z,1.00
2017-10-25T12:55:17.784Z,1.20
2017-10-25T12:57:52.871Z,1.10
2017-10-25T13:00:27.293Z,1.33
2017-10-25T13:03:01.724Z,0.85
2017-10-25T13:05:36.229Z,1.75
2017-10-25T13:08:11.456Z,1.70
2017-10-25T13:10:47.876Z,1.00
2017-10-25T13:13:43.266Z,1.25
2017-10-25T13:16:40.639Z,0.50
2017-10-25T13:19:16.240Z,0.85
2017-10-25T13:21:50.688Z,0.90
2017-10-25T13:24:24.995Z,1.40
2017-10-25T13:27:00.099Z,1.52
2017-10-25T13:29:35.644Z,1.25
2017-10-25T13:32:10.133Z,1.55
2017-10-25T13:34:44.493Z,1.80
2017-10-25T13:37:18.877Z,2.90
2017-10-25T13:39:53.248Z,3.22
2017-10-25T13:42:27.578Z,2.22
2017-10-25T13:45:02.790Z,2.75
2017-10-25T13:47:37.167Z,3.75
2017-10-25T13:50:11.624Z,3.17
2017-10-25T13:52:46.020Z,2.85
2017-10-25T13:55:20.471Z,0.73
2017-10-25T13:57:54.926Z,0.88
2017-10-25T14:00:29.311Z,1.80
2017-10-25T14:03:03.800Z,1.33
2017-10-25T14:05:38.239Z,1.80
2017-10-25T14:08:12.615Z,2.58
2017-10-25T14:10:47.693Z,1.70
2017-10-25T14:13:22.010Z,1.95
2017-10-25T14:15:56.503Z,3.08
2017-10-25T14:18:30.941Z,1.70
2017-10-25T14:21:05.339Z,1.90
2017-10-25T14:23:39.824Z,1.67
2017-10-25T14:26:27.096Z,1.85
2017-10-25T14:29:01.441Z,1.45
2017-10-25T14:31:36.386Z,1.45
2017-10-25T14:34:10.895Z,1.60
2017-10-25T14:36:45.376Z,1.40
2017-10-25T14:39:19.734Z,1.55
2017-10-25T14:41:54.953Z,1.52
2017-10-25T14:44:29.363Z,1.73
2017-10-25T14:47:04.521Z,2.05
2017-10-25T14:49:39.070Z,1.35
2017-10-25T14:52:14.276Z,2.10
2017-10-25T14:54:49.959Z,1.25
2017-10-25T14:57:24.391Z,1.65
2017-10-25T14:59:59.167Z,1.20
2017-10-25T15:02:33.587Z,2.28
2017-10-25T15:05:08.695Z,2.10
2017-10-25T15:07:43.150Z,1.40
2017-10-25T15:10:17.689Z,1.75
2017-10-25T15:12:52.257Z,1.70
2017-10-25T15:15:26.879Z,1.80
2017-10-25T15:18:01.293Z,2.22
2017-10-25T15:20:35.738Z,1.52
2017-10-25T15:23:10.242Z,1.80
2017-10-25T15:25:44.775Z,1.75
2017-10-25T15:28:19.134Z,1.48
2017-10-25T15:30:53.661Z,1.67
2017-10-25T15:33:28.083Z,2.78
2017-10-25T15:36:02.427Z,2.10
2017-10-25T15:38:36.864Z,1.90
2017-10-25T15:41:12.080Z,1.80
2017-10-25T15:43:46.549Z,2.12
2017-10-25T15:46:21.192Z,1.90
2017-10-25T15:48:55.673Z,1.60
2017-10-25T15:51:30.138Z,2.33
2017-10-25T15:54:04.604Z,2.10
2017-10-25T15:56:39.010Z,0.90
2017-10-25T15:59:13.464Z,1.50
2017-10-25T16:01:48.704Z,1.25
2017-10-25T16:04:23.068Z,3.25
2017-10-25T16:06:58.295Z,2.25
2017-10-25T16:09:32.846Z,2.83
2017-10-25T16:12:07.293Z,2.47
2017-10-25T16:14:41.701Z,1.92
2017-10-25T16:17:16.049Z,2.45
2017-10-25T16:19:50.586Z,1.35
2017-10-25T16:22:25.721Z,1.75
2017-10-25T16:25:00.200Z,3.17
2017-10-25T16:27:34.540Z,1.50
2017-10-25T16:30:09.148Z,2.35
2017-10-25T16:32:43.616Z,2.05
2017-10-25T16:35:18.068Z,1.12
2017-10-25T16:37:52.443Z,1.95
2017-10-25T16:40:26.969Z,1.77
2017-10-25T16:43:02.200Z,2.87
2017-10-25T16:45:36.769Z,1.92
2017-10-25T16:48:11.068Z,1.45
2017-10-25T16:50:45.554Z,2.92
2017-10-25T16:53:20.029Z,1.85
2017-10-25T16:55:54.343Z,1.70
2017-10-25T16:58:28.637Z,2.28
2017-10-25T17:01:03.819Z,2.00
2017-10-25T17:03:38.181Z,2.83
2017-10-25T17:06:13.294Z,2.85
2017-10-25T17:08:47.777Z,3.25
2017-10-25T17:11:22.130Z,1.90
2017-10-25T17:13:56.470Z,2.42
2017-10-25T17:16:30.941Z,2.05
2017-10-25T17:19:06.015Z,2.60
2017-10-25T17:21:40.338Z,2.50
2017-10-25T17:24:14.759Z,1.50
2017-10-25T17:26:49.312Z,2.03
2017-10-25T17:29:24.500Z,1.75
2017-10-25T17:31:59.072Z,1.50
2017-10-25T17:34:33.911Z,0.90
2017-10-25T17:37:08.283Z,1.30
2017-10-25T17:39:42.583Z,1.90
2017-10-25T17:42:16.929Z,2.60
2017-10-25T17:44:51.346Z,2.70
2017-10-25T17:47:25.681Z,2.70
2017-10-25T17:50:00.109Z,3.45
2017-10-25T17:52:34.518Z,3.00
2017-10-25T17:55:09.043Z,4.30
2017-10-25T17:57:43.617Z,2.28
2017-10-25T18:00:18.046Z,2.80
2017-10-25T18:02:52.609Z,2.58
2017-10-25T18:05:27.214Z,3.40
2017-10-25T18:08:01.765Z,2.55
2017-10-25T18:10:37.151Z,2.08
2017-10-25T18:13:11.980Z,4.22
2017-10-25T18:15:46.809Z,2.65
2017-10-25T18:18:21.806Z,2.25
2017-10-25T18:20:57.489Z,2.58
2017-10-25T18:23:32.351Z,2.83
2017-10-25T18:26:07.063Z,2.92
2017-10-25T18:28:41.862Z,3.20
2017-10-25T18:31:16.479Z,2.20
2017-10-25T18:33:51.361Z,3.45
2017-10-25T18:36:25.984Z,2.17
2017-10-25T18:39:00.786Z,2.17
2017-10-25T18:41:35.511Z,1.90
2017-10-25T18:44:11.170Z,2.25
2017-10-25T18:46:45.920Z,2.03
2017-10-25T18:49:20.850Z,2.25
2017-10-25T18:51:55.726Z,1.87
2017-10-25T18:54:31.575Z,2.50
2017-10-25T18:57:06.536Z,2.65
2017-10-25T18:59:41.411Z,2.60
2017-10-25T19:02:21.738Z,2.05
2017-10-25T19:04:57.542Z,2.12
2017-10-25T19:07:32.310Z,1.85
2017-10-25T19:10:07.461Z,2.50
2017-10-25T19:12:42.095Z,2.50
2017-10-25T19:15:16.745Z,2.78
2017-10-25T19:17:51.667Z,4.15
2017-10-25T19:20:26.539Z,3.25
2017-10-25T19:23:01.529Z,3.47
2017-10-25T19:25:36.478Z,2.42
2017-10-25T19:28:11.378Z,2.35
2017-10-25T19:30:46.363Z,2.45
2017-10-25T19:33:22.581Z,3.20
2017-10-25T19:35:57.405Z,2.42
2017-10-25T19:38:32.987Z,2.92
2017-10-25T19:41:07.950Z,3.62
2017-10-25T19:43:42.792Z,3.53
2017-10-25T19:46:18.185Z,1.83
2017-10-25T19:48:53.709Z,2.97
2017-10-25T19:51:28.472Z,3.03
2017-10-25T19:54:03.306Z,3.35
2017-10-25T19:56:38.212Z,2.67
2017-10-25T19:59:13.868Z,2.47
2017-10-25T20:01:49.404Z,3.03
2017-10-25T20:04:24.328Z,4.00
2017-10-25T20:06:59.129Z,3.15
2017-10-25T20:09:33.954Z,2.70
2017-10-25T20:12:08.846Z,2.80
2017-10-25T20:14:43.747Z,3.67
2017-10-25T20:17:18.388Z,2.95
2017-10-25T20:19:54.139Z,2.80
2017-10-25T20:22:28.976Z,2.60
2017-10-25T20:25:03.817Z,3.08
2017-10-25T20:27:38.580Z,2.95
2017-10-25T20:30:14.155Z,3.50
2017-10-25T20:32:48.926Z,3.20
2017-10-25T20:35:24.720Z,3.00
2017-10-25T20:37:59.440Z,3.30
2017-10-25T20:40:35.007Z,2.55
2017-10-25T20:43:09.972Z,2.90
2017-10-25T20:45:44.697Z,3.10
2017-10-25T20:48:19.453Z,2.60
2017-10-25T20:50:54.133Z,2.92
2017-10-25T20:53:29.560Z,3.08
2017-10-25T20:56:03.920Z,3.35
2017-10-25T20:58:39.231Z,2.62
2017-10-25T21:01:13.797Z,3.08
2017-10-25T21:03:48.314Z,4.55
2017-10-25T21:06:22.810Z,2.25
2017-10-25T21:08:57.286Z,1.73
2017-10-25T21:11:32.543Z,2.95
2017-10-25T21:14:06.877Z,2.40
2017-10-25T21:16:41.427Z,2.55
2017-10-25T21:19:15.814Z,2.72
2017-10-25T21:21:50.217Z,2.10
2017-10-25T21:24:25.484Z,2.67
2017-10-25T21:27:00.004Z,2.92
2017-10-25T21:29:34.438Z,3.15
2017-10-25T21:32:08.869Z,3.20
2017-10-25T21:34:43.380Z,3.08
2017-10-25T21:37:17.796Z,3.58
2017-10-25T21:39:52.246Z,3.28
2017-10-25T21:42:26.580Z,2.72
2017-10-25T21:45:01.068Z,3.15
2017-10-25T21:47:35.564Z,3.37
2017-10-25T21:50:10.131Z,3.35
2017-10-25T21:52:44.556Z,3.12
2017-10-25T21:55:18.967Z,2.80
2017-10-25T21:57:53.441Z,2.90
2017-10-25T22:00:27.883Z,3.10
2017-10-25T22:03:02.180Z,2.25
2017-10-25T22:05:37.240Z,2.53
2017-10-25T22:08:11.676Z,2.28
2017-10-25T22:10:45.998Z,2.12
2017-10-25T22:13:20.322Z,1.67
2017-10-25T22:15:55.518Z,2.00
2017-10-25T22:18:30.695Z,2.50
2017-10-25T22:21:05.102Z,2.58
2017-10-25T22:23:39.429Z,2.10
2017-10-25T22:26:14.493Z,2.30
2017-10-25T22:28:49.096Z,2.15
2017-10-25T22:31:23.478Z,2.72
2017-10-25T22:33:57.873Z,3.80
2017-10-25T22:36:32.240Z,2.83
2017-10-25T22:39:06.755Z,2.78
2017-10-25T22:41:41.296Z,1.98
2017-10-25T22:44:15.768Z,2.53
2017-10-25T22:46:50.221Z,2.47
2017-10-25T22:49:24.588Z,4.45
2017-10-25T22:51:59.084Z,2.22
2017-10-25T22:54:33.555Z,2.67
2017-10-25T22:57:07.901Z,3.83
2017-10-25T22:59:42.321Z,2.33
2017-10-25T23:02:16.739Z,2.97
2017-10-25T23:04:51.221Z,2.97
2017-10-25T23:07:25.740Z,2.00
2017-10-25T23:10:00.230Z,3.15
2017-10-25T23:12:35.505Z,2.53
2017-10-25T23:15:10.077Z,4.82
2017-10-25T23:17:44.559Z,2.15
2017-10-25T23:20:19.081Z,2.47
2017-10-25T23:22:54.304Z,2.92
2017-10-25T23:25:28.884Z,2.90
2017-10-25T23:28:03.336Z,3.03
2017-10-25T23:30:38.527Z,2.00
2017-10-25T23:33:12.897Z,2.58
2017-10-25T23:35:47.305Z,2.15
2017-10-25T23:38:22.559Z,3.10
2017-10-25T23:40:57.018Z,2.58
2017-10-25T23:43:31.476Z,3.42
2017-10-25T23:46:05.945Z,2.90
2017-10-25T23:48:40.413Z,3.30
2017-10-25T23:51:14.779Z,2.50
2017-10-25T23:53:49.120Z,3.00
2017-10-25T23:56:23.696Z,2.80
2017-10-25T23:58:58.092Z,2.55
